Time;durP1;ratioP1;P1;durP2;ratioP2;P2;SDS_P1;SDS_P2;PMS_P1;PMS_P2;Temp;Humidity;BMP_temperature;BMP_pressure;BME280_temperature;BME280_humidity;BME280_pressure;Samples;Min_cycle;Max_cycle;Signal;HPM_P1;HPM_P2
2024/02/03 12:24:54;;;;;;;17.83;12.38;;;17.40;53.50;;;;;;5069338;28;20600;-73
2024/02/03 12:27:22;;;;;;;15.82;12.40;;;17.50;53.40;;;;;;5065981;28;20502;-74
2024/02/03 12:29:49;;;;;;;19.67;12.27;;;17.50;53.30;;;;;;5073869;28;20044;-74
2024/02/03 12:32:14;;;;;;;19.55;12.88;;;17.60;52.60;;;;;;5073653;28;20047;-74
2024/02/03 12:34:40;;;;;;;20.17;13.48;;;17.70;52.70;;;;;;5070780;28;20603;-73
2024/02/03 12:37:06;;;;;;;17.83;12.07;;;17.80;52.10;;;;;;5073563;28;20059;-74
2024/02/03 12:39:31;;;;;;;17.38;12.05;;;17.80;52.20;;;;;;5073309;28;20484;-76
2024/02/03 12:41:57;;;;;;;18.55;11.63;;;17.90;52.40;;;;;;5073354;28;20094;-75
2024/02/03 12:44:23;;;;;;;20.33;12.48;;;18.00;52.60;;;;;;5073668;28;20024;-78
2024/02/03 12:46:48;;;;;;;21.05;12.18;;;18.10;52.70;;;;;;5073598;28;20504;-80
2024/02/03 12:49:14;;;;;;;18.25;12.30;;;18.10;52.80;;;;;;5071449;28;20024;-80
2024/02/03 12:51:42;;;;;;;18.58;11.68;;;18.20;53.60;;;;;;5065977;28;20060;-79
2024/02/03 12:54:07;;;;;;;15.57;11.48;;;18.30;53.20;;;;;;5072651;28;20024;-80
2024/02/03 12:56:33;;;;;;;17.65;10.85;;;18.40;53.40;;;;;;5072899;28;20036;-79
2024/02/03 12:58:59;;;;;;;15.77;11.70;;;18.40;53.80;;;;;;5072827;28;20466;-80
2024/02/03 13:01:24;;;;;;;18.52;11.63;;;18.40;54.20;;;;;;5073613;28;20086;-83
2024/02/03 13:03:51;;;;;;;18.15;12.50;;;18.60;54.60;;;;;;5073385;28;20021;-80
2024/02/03 13:06:16;;;;;;;21.88;11.95;;;18.60;54.50;;;;;;5073835;28;20032;-84
2024/02/03 13:08:44;;;;;;;14.32;10.98;;;18.70;54.70;;;;;;5074618;28;20173;-84
2024/02/03 13:11:09;;;;;;;16.92;12.23;;;18.70;54.70;;;;;;5078315;28;20189;-81
2024/02/03 13:13:35;;;;;;;18.63;11.82;;;18.70;54.50;;;;;;5071954;28;20048;-80
2024/02/03 13:16:01;;;;;;;23.85;18.00;;;18.70;54.80;;;;;;5071730;28;20113;-80
2024/02/03 13:18:27;;;;;;;21.67;13.65;;;18.80;54.80;;;;;;5072833;28;20044;-83
2024/02/03 13:20:52;;;;;;;16.02;12.10;;;18.90;54.90;;;;;;5073236;28;20060;-82
2024/02/03 13:23:18;;;;;;;14.27;10.95;;;18.90;54.80;;;;;;5072678;28;20042;-77
2024/02/03 13:25:44;;;;;;;16.90;11.38;;;19.00;54.90;;;;;;5064558;28;20529;-76
2024/02/03 13:28:09;;;;;;;17.88;11.52;;;19.10;55.00;;;;;;5059293;28;20087;-76
2024/02/03 13:30:35;;;;;;;15.82;9.63;;;19.10;55.00;;;;;;5056190;28;20037;-77
2024/02/03 13:33:01;;;;;;;11.50;8.73;;;19.20;55.20;;;;;;5061878;28;20033;-76
2024/02/03 13:35:27;;;;;;;14.63;8.98;;;19.20;55.30;;;;;;5062526;28;20040;-76
2024/02/03 13:37:53;;;;;;;11.10;8.60;;;19.30;55.70;;;;;;5046976;28;20083;-76
2024/02/03 13:40:19;;;;;;;10.20;7.82;;;19.30;55.00;;;;;;5052246;28;20502;-76
2024/02/03 13:42:51;;;;;;;14.77;9.05;;;19.30;54.80;;;;;;5052413;28;20108;-77
2024/02/03 13:45:17;;;;;;;13.00;8.10;;;19.40;54.90;;;;;;5052558;28;20036;-77
2024/02/03 13:47:43;;;;;;;11.48;7.93;;;19.40;54.40;;;;;;5052504;28;20029;-77
2024/02/03 13:50:09;;;;;;;9.63;7.20;;;19.30;54.40;;;;;;5071527;28;20032;-79
2024/02/03 13:52:35;;;;;;;13.70;7.70;;;19.40;54.30;;;;;;5071925;28;20032;-78
2024/02/03 13:55:01;;;;;;;8.77;6.25;;;19.40;54.10;;;;;;5071870;28;20037;-78
2024/02/03 13:57:27;;;;;;;9.90;6.40;;;19.50;53.80;;;;;;5072035;28;20033;-76
2024/02/03 13:59:52;;;;;;;9.45;5.82;;;19.50;53.20;;;;;;5072182;28;20031;-77
2024/02/03 14:02:18;;;;;;;9.68;6.60;;;19.50;53.20;;;;;;5067831;28;20550;-77
2024/02/03 14:04:45;;;;;;;12.23;5.93;;;19.60;53.30;;;;;;5065798;28;20562;-77
2024/02/03 14:07:11;;;;;;;10.23;5.72;;;19.60;53.20;;;;;;5071671;28;20039;-77
2024/02/03 14:09:37;;;;;;;9.73;5.55;;;19.60;53.20;;;;;;5072164;28;20131;-78
2024/02/03 14:12:03;;;;;;;7.40;4.60;;;19.60;53.20;;;;;;5071788;28;20444;-77
2024/02/03 14:14:29;;;;;;;10.52;4.60;;;19.60;53.00;;;;;;5071909;28;20028;-76
2024/02/03 14:16:55;;;;;;;9.50;4.05;;;19.60;52.90;;;;;;5071823;28;20504;-76
2024/02/03 14:19:20;;;;;;;9.32;4.40;;;19.60;52.50;;;;;;5072036;28;20035;-77
2024/02/03 14:21:46;;;;;;;6.60;4.07;;;19.60;52.50;;;;;;5072371;28;20074;-75
2024/02/03 14:24:12;;;;;;;8.15;3.65;;;19.60;52.30;;;;;;5071732;28;20374;-77
2024/02/03 14:26:38;;;;;;;7.45;3.33;;;19.60;51.90;;;;;;5072437;28;20056;-74
2024/02/03 14:29:04;;;;;;;6.88;3.20;;;19.60;51.30;;;;;;5075683;28;20434;-75
2024/02/03 14:31:30;;;;;;;6.07;2.75;;;19.60;51.30;;;;;;5067592;28;20529;-75
2024/02/03 14:33:55;;;;;;;8.35;2.83;;;19.60;50.50;;;;;;5054951;28;20167;-75
2024/02/03 14:36:21;;;;;;;7.55;2.90;;;19.50;50.50;;;;;;5055675;28;20532;-77
2024/02/03 14:38:47;;;;;;;5.47;3.00;;;19.50;50.30;;;;;;5054629;28;20055;-75
2024/02/03 14:41:13;;;;;;;6.43;2.70;;;19.50;50.00;;;;;;5054290;28;20033;-74
2024/02/03 14:43:40;;;;;;;4.45;2.72;;;19.50;49.70;;;;;;5055693;28;20435;-75
2024/02/03 14:46:06;;;;;;;5.53;2.92;;;19.50;49.60;;;;;;5070122;28;20039;-77
2024/02/03 14:48:32;;;;;;;4.80;2.95;;;19.40;49.50;;;;;;5075939;28;20029;-77
2024/02/03 14:50:58;;;;;;;6.32;3.03;;;19.40;49.30;;;;;;5076441;28;20387;-75
2024/02/03 14:53:24;;;;;;;9.30;3.15;;;19.40;49.40;;;;;;5075713;28;20032;-76
2024/02/03 14:55:50;;;;;;;8.00;2.60;;;19.40;49.40;;;;;;5075649;28;20424;-75
2024/02/03 14:58:16;;;;;;;6.00;2.20;;;19.40;49.70;;;;;;5075402;28;20083;-75
2024/02/03 15:00:41;;;;;;;8.45;2.65;;;19.40;49.80;;;;;;5076037;28;20036;-75
2024/02/03 15:03:07;;;;;;;6.60;2.65;;;19.30;49.80;;;;;;5070207;28;20558;-74
2024/02/03 15:05:33;;;;;;;9.95;5.70;;;19.30;50.30;;;;;;5074276;28;20028;-74
2024/02/03 15:07:59;;;;;;;8.68;3.55;;;19.30;50.50;;;;;;5075285;28;20036;-75
2024/02/03 15:10:25;;;;;;;6.18;3.10;;;19.30;50.40;;;;;;5075417;28;20032;-74
2024/02/03 15:12:50;;;;;;;6.38;3.13;;;19.20;50.70;;;;;;5075364;28;20124;-76
2024/02/03 15:15:16;;;;;;;9.18;3.70;;;19.10;50.90;;;;;;5075095;28;20553;-75
2024/02/03 15:17:42;;;;;;;12.20;5.18;;;19.00;51.20;;;;;;5075491;28;20112;-75
2024/02/03 15:20:08;;;;;;;10.43;3.30;;;19.00;51.30;;;;;;5056995;28;20405;-76
2024/02/03 15:22:34;;;;;;;5.97;3.05;;;19.00;51.40;;;;;;5074746;28;20025;-74
2024/02/03 15:25:00;;;;;;;11.40;3.70;;;18.90;51.50;;;;;;5074675;28;20059;-78
2024/02/03 15:27:25;;;;;;;7.00;3.45;;;18.90;52.10;;;;;;5074813;28;20076;-75
2024/02/03 15:29:51;;;;;;;7.65;2.72;;;18.80;52.50;;;;;;5054724;28;20029;-74
2024/02/03 15:32:18;;;;;;;11.23;3.00;;;18.70;53.00;;;;;;5072265;28;20128;-75
2024/02/03 15:34:44;;;;;;;7.10;2.92;;;18.60;53.40;;;;;;5055545;28;20037;-75
2024/02/03 15:37:10;;;;;;;11.07;3.25;;;18.50;53.70;;;;;;5058257;28;20498;-74
2024/02/03 15:39:35;;;;;;;6.78;2.95;;;18.40;54.00;;;;;;5056402;28;20035;-74
2024/02/03 15:42:01;;;;;;;8.55;3.03;;;18.40;54.20;;;;;;5067926;28;20482;-78
2024/02/03 15:44:27;;;;;;;7.05;3.15;;;18.30;54.20;;;;;;5066276;28;20040;-81
2024/02/03 15:46:54;;;;;;;5.53;2.85;;;18.20;54.40;;;;;;5074402;28;20506;-78
2024/02/03 15:49:20;;;;;;;7.47;2.92;;;18.20;54.60;;;;;;5074360;28;20401;-76
2024/02/03 15:51:46;;;;;;;6.55;3.10;;;18.20;55.00;;;;;;5074532;28;20025;-76
2024/02/03 15:54:12;;;;;;;7.53;3.78;;;18.20;55.20;;;;;;5072540;28;20044;-75
2024/02/03 15:56:39;;;;;;;6.60;3.20;;;18.10;55.40;;;;;;5063762;28;20094;-74
2024/02/03 15:59:06;;;;;;;8.70;3.72;;;18.00;55.60;;;;;;5068850;28;21438;-76
2024/02/03 16:01:32;;;;;;;8.65;3.30;;;17.90;55.90;;;;;;5053174;28;20117;-76
2024/02/03 16:03:58;;;;;;;7.72;3.20;;;17.80;56.50;;;;;;5053029;28;20435;-74
2024/02/03 16:06:24;;;;;;;6.50;3.15;;;17.70;56.70;;;;;;5054357;28;20076;-76
2024/02/03 16:08:50;;;;;;;9.27;3.15;;;17.60;57.10;;;;;;5054057;28;20053;-75
2024/02/03 16:11:16;;;;;;;10.45;3.30;;;17.50;57.30;;;;;;5054231;28;20041;-75
2024/02/03 16:13:42;;;;;;;12.75;3.00;;;17.40;57.40;;;;;;5054319;28;20029;-76
2024/02/03 16:16:09;;;;;;;8.55;3.17;;;17.20;57.50;;;;;;5054122;28;20045;-75
2024/02/03 16:18:34;;;;;;;8.55;3.15;;;17.20;57.80;;;;;;5036029;28;20025;-74
2024/02/03 16:21:00;;;;;;;9.45;3.13;;;17.00;57.90;;;;;;5054058;28;20040;-76
2024/02/03 16:23:26;;;;;;;8.32;3.33;;;17.00;58.10;;;;;;5053971;28;20501;-77
2024/02/03 16:25:51;;;;;;;8.20;3.53;;;16.80;58.10;;;;;;5054340;28;20037;-75
2024/02/03 16:28:17;;;;;;;7.18;3.72;;;16.70;58.30;;;;;;5053743;28;20112;-76
2024/02/03 16:30:44;;;;;;;9.98;4.75;;;16.60;58.50;;;;;;5053918;28;20033;-75
2024/02/03 16:33:11;;;;;;;10.63;5.35;;;16.50;58.60;;;;;;5053427;28;20347;-75
2024/02/03 16:35:37;;;;;;;14.50;5.25;;;16.40;58.80;;;;;;5053650;28;20044;-75
2024/02/03 16:38:03;;;;;;;10.95;3.90;;;16.30;59.10;;;;;;5053970;28;20025;-75
2024/02/03 16:40:29;;;;;;;9.52;4.30;;;16.20;59.10;;;;;;5054299;28;20053;-74
2024/02/03 16:42:54;;;;;;;12.57;4.30;;;16.20;59.30;;;;;;5053664;28;20090;-77
2024/02/03 16:45:20;;;;;;;9.48;3.72;;;16.10;59.50;;;;;;5053739;28;20029;-75
2024/02/03 16:47:46;;;;;;;9.23;4.18;;;16.00;59.60;;;;;;5053758;28;20041;-75
2024/02/03 16:50:11;;;;;;;11.40;4.28;;;16.00;59.90;;;;;;5053068;28;20552;-76
2024/02/03 16:52:37;;;;;;;9.15;4.00;;;15.90;59.90;;;;;;5052261;28;20175;-74
2024/02/03 16:55:03;;;;;;;9.45;4.32;;;15.90;60.20;;;;;;5053563;28;20033;-76
2024/02/03 16:57:29;;;;;;;11.77;6.03;;;15.80;60.50;;;;;;5053886;28;20502;-77
2024/02/03 16:59:54;;;;;;;11.00;5.97;;;15.70;60.60;;;;;;5052561;28;20037;-75
2024/02/03 17:02:20;;;;;;;13.57;6.60;;;15.70;60.80;;;;;;5053882;28;20424;-76
2024/02/03 17:04:47;;;;;;;12.52;8.05;;;15.60;60.90;;;;;;5054502;28;20032;-76
2024/02/03 17:07:13;;;;;;;13.43;7.60;;;15.50;61.20;;;;;;5053652;28;20032;-74
2024/02/03 17:09:39;;;;;;;9.95;6.63;;;15.50;61.60;;;;;;5053422;28;20029;-76
2024/02/03 17:12:05;;;;;;;15.48;5.93;;;15.40;61.80;;;;;;5053221;28;20037;-76
2024/02/03 17:14:30;;;;;;;9.95;5.30;;;15.40;62.30;;;;;;5052535;28;20063;-75
2024/02/03 17:16:56;;;;;;;11.63;5.93;;;15.30;62.40;;;;;;5054734;28;20099;-75
2024/02/03 17:19:22;;;;;;;9.88;5.32;;;15.30;62.70;;;;;;5053373;28;20021;-76
2024/02/03 17:21:48;;;;;;;11.60;5.40;;;15.30;63.20;;;;;;5053527;28;20461;-77
2024/02/03 17:24:13;;;;;;;14.70;4.88;;;15.20;63.30;;;;;;5053179;28;20025;-76
2024/02/03 17:26:39;;;;;;;10.35;4.63;;;15.10;63.70;;;;;;5053088;28;20130;-76
2024/02/03 17:29:05;;;;;;;13.27;5.20;;;15.10;64.20;;;;;;5035346;28;20033;-76
2024/02/03 17:31:31;;;;;;;8.60;4.57;;;15.00;64.40;;;;;;5053001;28;20029;-75
2024/02/03 17:33:56;;;;;;;10.27;4.88;;;15.00;64.70;;;;;;5052932;28;20064;-76
2024/02/03 17:36:22;;;;;;;11.32;5.03;;;14.90;64.90;;;;;;5052725;28;20116;-76
2024/02/03 17:38:48;;;;;;;8.13;4.80;;;14.90;65.20;;;;;;5052971;28;20037;-76
2024/02/03 17:41:13;;;;;;;9.82;5.22;;;14.90;65.50;;;;;;5054014;28;20117;-76
2024/02/03 17:43:39;;;;;;;13.75;5.65;;;14.80;65.80;;;;;;5053196;28;20037;-75
2024/02/03 17:46:05;;;;;;;14.43;6.50;;;14.80;66.20;;;;;;5053677;28;20048;-76
2024/02/03 17:48:31;;;;;;;10.38;6.38;;;14.70;66.50;;;;;;5052137;28;20033;-77
2024/02/03 17:50:56;;;;;;;14.95;6.28;;;14.70;66.80;;;;;;5054628;28;20227;-76
2024/02/03 17:53:22;;;;;;;13.98;6.50;;;14.70;67.10;;;;;;5053445;28;20033;-74
2024/02/03 17:55:48;;;;;;;14.43;6.32;;;14.70;67.60;;;;;;5053295;28;20076;-77
2024/02/03 17:58:13;;;;;;;15.13;6.35;;;14.60;67.90;;;;;;5053360;28;20044;-76
2024/02/03 18:00:39;;;;;;;15.15;6.22;;;14.60;68.20;;;;;;5053184;28;20041;-75
2024/02/03 18:03:06;;;;;;;11.65;6.20;;;14.60;68.60;;;;;;5052936;28;20037;-76
2024/02/03 18:05:34;;;;;;;12.65;6.70;;;14.50;68.80;;;;;;5053087;28;20545;-75
2024/02/03 18:08:00;;;;;;;15.60;7.07;;;14.50;69.40;;;;;;5053755;28;20422;-76
2024/02/03 18:10:26;;;;;;;14.07;6.05;;;14.50;69.90;;;;;;5052691;28;20033;-76
2024/02/03 18:12:51;;;;;;;17.33;6.38;;;14.40;70.30;;;;;;5052954;28;20029;-76
2024/02/03 18:15:17;;;;;;;10.13;6.05;;;14.40;70.60;;;;;;5051281;28;20090;-75
2024/02/03 18:17:43;;;;;;;11.27;5.97;;;14.30;71.10;;;;;;5053541;28;20033;-76
2024/02/03 18:20:10;;;;;;;10.63;6.28;;;14.30;71.60;;;;;;5053619;28;20052;-77
2024/02/03 18:22:36;;;;;;;13.05;6.80;;;14.30;72.00;;;;;;5052839;28;20060;-75
2024/02/03 18:25:02;;;;;;;11.20;7.35;;;14.30;72.30;;;;;;5053707;28;20029;-75
2024/02/03 18:27:27;;;;;;;10.73;7.50;;;14.20;72.70;;;;;;5052563;28;20163;-76
2024/02/03 18:29:53;;;;;;;14.35;7.32;;;14.20;73.60;;;;;;5052615;28;20049;-75
2024/02/03 18:32:19;;;;;;;12.30;6.28;;;14.10;73.20;;;;;;5052515;28;20044;-74
2024/02/03 18:34:44;;;;;;;13.50;7.30;;;14.10;73.70;;;;;;5052711;28;20037;-76
2024/02/03 18:37:10;;;;;;;16.90;7.97;;;14.00;74.00;;;;;;5034676;28;20033;-75
2024/02/03 18:39:36;;;;;;;15.82;9.93;;;14.00;74.20;;;;;;5052911;28;20079;-76
2024/02/03 18:42:02;;;;;;;14.07;9.30;;;14.00;74.50;;;;;;5051610;28;20473;-76
2024/02/03 18:44:27;;;;;;;17.98;9.63;;;14.00;75.00;;;;;;5052625;28;20040;-77
2024/02/03 18:46:53;;;;;;;13.40;8.23;;;13.90;75.10;;;;;;5062728;28;20047;-76
2024/02/03 18:49:19;;;;;;;15.75;7.82;;;13.90;75.40;;;;;;5072420;28;20486;-76
2024/02/03 18:51:44;;;;;;;15.57;8.68;;;13.80;75.60;;;;;;5072436;28;20543;-74
2024/02/03 18:54:10;;;;;;;13.00;8.50;;;13.80;76.00;;;;;;5074090;28;20024;-76
2024/02/03 18:56:36;;;;;;;16.27;8.77;;;13.80;76.20;;;;;;5073773;28;20159;-76
2024/02/03 18:59:01;;;;;;;12.95;8.60;;;13.80;76.50;;;;;;5055167;28;20024;-75
2024/02/03 19:01:28;;;;;;;14.02;9.00;;;13.80;76.90;;;;;;5072284;28;20036;-76
2024/02/03 19:03:54;;;;;;;13.20;9.00;;;13.70;77.10;;;;;;5071976;28;20103;-75
2024/02/03 19:06:19;;;;;;;15.63;9.55;;;13.70;77.60;;;;;;5071840;28;20064;-74
2024/02/03 19:08:45;;;;;;;13.43;9.23;;;13.70;77.90;;;;;;5072038;28;20036;-76
2024/02/03 19:11:11;;;;;;;12.70;8.77;;;13.70;78.10;;;;;;5071983;28;20031;-75
2024/02/03 19:13:37;;;;;;;16.48;10.65;;;13.60;78.40;;;;;;5072781;28;20032;-77
2024/02/03 19:16:03;;;;;;;17.58;10.88;;;13.60;78.80;;;;;;5076109;28;20044;-76
2024/02/03 19:18:29;;;;;;;15.18;10.02;;;13.60;79.20;;;;;;5075803;28;20029;-76
2024/02/03 19:20:54;;;;;;;16.58;10.45;;;13.60;79.20;;;;;;5075939;28;20040;-75
2024/02/03 19:23:20;;;;;;;15.50;10.50;;;13.60;79.40;;;;;;5075757;28;20056;-75
2024/02/03 19:25:46;;;;;;;16.60;10.57;;;13.60;79.60;;;;;;5075394;28;20083;-75
2024/02/03 19:28:12;;;;;;;14.88;9.65;;;13.60;80.00;;;;;;5075356;28;20486;-75
2024/02/03 19:30:41;;;;;;;19.38;9.70;;;13.60;80.20;;;;;;5076904;28;20086;-75
2024/02/03 19:33:06;;;;;;;21.60;11.95;;;13.60;80.50;;;;;;5076720;28;20085;-76
2024/02/03 19:35:32;;;;;;;17.10;11.02;;;13.60;80.60;;;;;;5076598;28;20052;-77
2024/02/03 19:38:00;;;;;;;20.75;11.25;;;13.60;80.70;;;;;;5075693;28;20059;-76
2024/02/03 19:40:26;;;;;;;16.15;11.40;;;13.50;80.80;;;;;;5056936;28;20375;-75
2024/02/03 19:42:52;;;;;;;23.27;12.25;;;13.50;81.10;;;;;;5075454;28;20025;-75
2024/02/03 19:45:18;;;;;;;22.00;12.35;;;13.50;81.20;;;;;;5075315;28;20032;-77
2024/02/03 19:47:44;;;;;;;21.10;12.45;;;13.50;81.40;;;;;;5073989;28;20037;-75
2024/02/03 19:50:10;;;;;;;19.80;12.57;;;13.40;81.70;;;;;;5057371;28;20478;-76
2024/02/03 19:52:36;;;;;;;21.02;12.30;;;13.40;81.80;;;;;;5075486;28;20124;-79
2024/02/03 19:55:03;;;;;;;24.20;13.15;;;13.40;81.80;;;;;;5058255;28;20461;-76
2024/02/03 19:57:29;;;;;;;21.70;12.95;;;13.40;82.20;;;;;;5076027;28;20452;-77
2024/02/03 19:59:54;;;;;;;18.05;12.23;;;13.40;82.20;;;;;;5057627;28;20052;-77
2024/02/03 20:02:20;;;;;;;22.38;13.10;;;13.30;82.40;;;;;;5075398;28;20055;-77
2024/02/03 20:04:46;;;;;;;21.27;13.18;;;13.30;83.00;;;;;;5075025;28;20041;-75
2024/02/03 20:07:12;;;;;;;24.38;14.07;;;13.30;82.70;;;;;;5075123;28;20035;-76
2024/02/03 20:09:39;;;;;;;30.25;17.00;;;13.30;82.90;;;;;;5056957;28;20072;-75
2024/02/03 20:12:05;;;;;;;27.70;17.85;;;13.30;83.00;;;;;;5075783;28;20397;-75
2024/02/03 20:14:31;;;;;;;26.92;17.83;;;13.20;82.90;;;;;;5074694;28;20072;-74
2024/02/03 20:16:58;;;;;;;46.55;19.08;;;13.20;83.10;;;;;;5075143;28;20075;-75
2024/02/03 20:19:25;;;;;;;27.35;16.95;;;13.20;83.40;;;;;;5074735;28;20056;-76
2024/02/03 20:21:51;;;;;;;23.60;16.67;;;13.20;83.70;;;;;;5074995;28;20041;-76
2024/02/03 20:24:17;;;;;;;23.15;15.88;;;13.20;83.80;;;;;;5075104;28;20067;-76
2024/02/03 20:26:43;;;;;;;22.60;15.48;;;13.10;83.90;;;;;;5074832;28;20044;-76
2024/02/03 20:29:08;;;;;;;29.40;16.42;;;13.10;84.00;;;;;;5074772;28;20039;-75
2024/02/03 20:31:34;;;;;;;25.10;15.38;;;13.10;84.20;;;;;;5074757;28;20028;-76
2024/02/03 20:34:02;;;;;;;25.75;15.38;;;13.10;84.20;;;;;;5076217;28;20045;-76
2024/02/03 20:36:28;;;;;;;23.25;14.65;;;13.10;84.50;;;;;;5075135;28;20041;-76
2024/02/03 20:38:54;;;;;;;23.27;15.77;;;13.00;84.60;;;;;;5074770;28;20437;-75
2024/02/03 20:41:21;;;;;;;18.95;13.48;;;13.00;84.60;;;;;;5074306;28;20067;-76
2024/02/03 20:43:48;;;;;;;22.17;15.00;;;13.00;84.80;;;;;;5074458;28;20021;-75
2024/02/03 20:46:13;;;;;;;22.35;14.65;;;13.00;84.90;;;;;;5073730;28;20044;-75
2024/02/03 20:48:39;;;;;;;27.15;14.75;;;13.00;85.00;;;;;;5074121;28;20551;-76
2024/02/03 20:51:05;;;;;;;23.73;16.23;;;13.00;85.20;;;;;;5074302;28;20036;-75
2024/02/03 20:53:33;;;;;;;27.60;17.23;;;13.00;85.30;;;;;;5056139;28;20218;-76
2024/02/03 20:55:59;;;;;;;23.00;16.10;;;13.00;85.40;;;;;;5074325;28;20187;-76
2024/02/03 20:58:24;;;;;;;28.08;16.73;;;12.90;85.40;;;;;;5055816;28;20211;-77
2024/02/03 21:00:50;;;;;;;28.92;18.17;;;12.90;85.60;;;;;;5056094;28;20501;-75
2024/02/03 21:03:16;;;;;;;26.88;17.02;;;12.90;85.80;;;;;;5074147;28;20037;-78
2024/02/03 21:05:42;;;;;;;24.98;17.65;;;12.80;85.90;;;;;;5073936;28;20028;-76
2024/02/03 21:08:09;;;;;;;34.60;24.80;;;12.80;86.00;;;;;;5073630;28;20032;-76
2024/02/03 21:10:35;;;;;;;23.85;16.75;;;12.80;86.30;;;;;;5074191;28;20178;-75
2024/02/03 21:13:04;;;;;;;26.90;16.23;;;12.80;86.20;;;;;;5073603;28;20547;-76
2024/02/03 21:15:32;;;;;;;20.75;15.88;;;12.80;86.70;;;;;;5073741;28;20405;-76
2024/02/03 21:17:58;;;;;;;21.40;15.95;;;12.70;87.10;;;;;;5074030;28;20490;-77
2024/02/03 21:20:25;;;;;;;25.00;15.38;;;12.70;87.10;;;;;;5074443;28;20046;-76
2024/02/03 21:22:51;;;;;;;23.42;15.82;;;12.70;87.30;;;;;;5056329;28;20392;-77
